Terminal Aerodrome Forecast
Issued by NWS Omaha/Valley, NE

Home | Current Version | Previous Version | Text Only | Print | Product List | Glossary On
Versions: 1 2 3 4 5 6 7 8 9 10 11 12 13 14 15 16 17 18 19 20
000
FTUS43 KOAX 301010 AAA
TAFOMA
TAF AMD
KOMA 301010Z 3010/3106 14005KT P6SM SCT100 SCT250
     FM301500 17007KT P6SM SCT100
     FM301800 17011KT P6SM SCT040 BKN120 PROB30 3100/3106 3SM TSRA
      BKN040CB=

USA.gov is the U.S. government's official web portal to all federal, state and local government web resources and services.